sensor_id;sensor_type;location;lat;lon;timestamp;temperature;humidity
8248;DHT22;4164;49.844;8.830;2023-04-24T00:00:46;11.80;99.90
8248;DHT22;4164;49.844;8.830;2023-04-24T00:03:12;11.80;99.90
8248;DHT22;4164;49.844;8.830;2023-04-24T00:05:38;11.70;99.90
8248;DHT22;4164;49.844;8.830;2023-04-24T00:08:06;11.70;99.90
8248;DHT22;4164;49.844;8.830;2023-04-24T00:10:31;11.70;99.90
8248;DHT22;4164;49.844;8.830;2023-04-24T00:12:57;11.60;99.90
8248;DHT22;4164;49.844;8.830;2023-04-24T00:15:22;11.60;99.90
8248;DHT22;4164;49.844;8.830;2023-04-24T00:17:48;11.60;99.90
8248;DHT22;4164;49.844;8.830;2023-04-24T00:20:14;11.60;99.90
8248;DHT22;4164;49.844;8.830;2023-04-24T00:22:40;11.60;99.90
8248;DHT22;4164;49.844;8.830;2023-04-24T00:25:06;11.60;99.90
8248;DHT22;4164;49.844;8.830;2023-04-24T00:27:31;11.70;99.90
8248;DHT22;4164;49.844;8.830;2023-04-24T00:29:57;11.70;99.90
8248;DHT22;4164;49.844;8.830;2023-04-24T00:32:22;11.70;99.90
8248;DHT22;4164;49.844;8.830;2023-04-24T00:34:48;11.70;99.90
8248;DHT22;4164;49.844;8.830;2023-04-24T00:37:13;11.70;99.90
8248;DHT22;4164;49.844;8.830;2023-04-24T00:39:39;11.70;99.90
8248;DHT22;4164;49.844;8.830;2023-04-24T00:42:05;11.70;99.90
8248;DHT22;4164;49.844;8.830;2023-04-24T00:44:33;11.70;99.90
8248;DHT22;4164;49.844;8.830;2023-04-24T00:46:59;11.70;99.90
8248;DHT22;4164;49.844;8.830;2023-04-24T00:49:26;11.70;99.90
8248;DHT22;4164;49.844;8.830;2023-04-24T00:51:51;11.80;99.00
8248;DHT22;4164;49.844;8.830;2023-04-24T00:54:17;11.80;99.90
8248;DHT22;4164;49.844;8.830;2023-04-24T00:56:44;11.90;99.90
8248;DHT22;4164;49.844;8.830;2023-04-24T00:59:11;12.00;20.40
8248;DHT22;4164;49.844;8.830;2023-04-24T01:01:38;12.00;1.00
8248;DHT22;4164;49.844;8.830;2023-04-24T01:04:08;12.00;94.50
8248;DHT22;4164;49.844;8.830;2023-04-24T01:06:38;12.10;1.00
8248;DHT22;4164;49.844;8.830;2023-04-24T01:09:04;12.00;1.00
8248;DHT22;4164;49.844;8.830;2023-04-24T01:11:30;12.00;1.00
8248;DHT22;4164;49.844;8.830;2023-04-24T01:13:56;12.00;1.00
8248;DHT22;4164;49.844;8.830;2023-04-24T01:16:22;11.90;1.00
8248;DHT22;4164;49.844;8.830;2023-04-24T01:18:48;11.90;1.00
8248;DHT22;4164;49.844;8.830;2023-04-24T01:21:15;11.90;1.00
8248;DHT22;4164;49.844;8.830;2023-04-24T01:23:45;11.90;1.00
8248;DHT22;4164;49.844;8.830;2023-04-24T01:26:11;11.90;1.00
8248;DHT22;4164;49.844;8.830;2023-04-24T01:28:37;11.90;1.00
8248;DHT22;4164;49.844;8.830;2023-04-24T01:31:03;11.80;1.00
8248;DHT22;4164;49.844;8.830;2023-04-24T01:33:28;11.80;1.00
8248;DHT22;4164;49.844;8.830;2023-04-24T01:35:54;11.80;1.00
8248;DHT22;4164;49.844;8.830;2023-04-24T01:38:20;11.80;1.00
8248;DHT22;4164;49.844;8.830;2023-04-24T01:40:46;11.70;1.00
8248;DHT22;4164;49.844;8.830;2023-04-24T01:43:13;11.60;1.00
8248;DHT22;4164;49.844;8.830;2023-04-24T01:45:38;11.60;1.00
8248;DHT22;4164;49.844;8.830;2023-04-24T01:48:04;11.50;1.00
8248;DHT22;4164;49.844;8.830;2023-04-24T01:50:30;11.50;1.00
8248;DHT22;4164;49.844;8.830;2023-04-24T01:52:56;11.50;1.00
8248;DHT22;4164;49.844;8.830;2023-04-24T01:55:21;11.60;1.00
8248;DHT22;4164;49.844;8.830;2023-04-24T01:57:47;11.70;1.00
8248;DHT22;4164;49.844;8.830;2023-04-24T02:00:13;11.70;1.00
8248;DHT22;4164;49.844;8.830;2023-04-24T02:02:40;11.70;1.00
8248;DHT22;4164;49.844;8.830;2023-04-24T02:05:07;11.70;1.00
8248;DHT22;4164;49.844;8.830;2023-04-24T02:07:32;11.70;1.00
8248;DHT22;4164;49.844;8.830;2023-04-24T02:09:58;11.80;1.00
8248;DHT22;4164;49.844;8.830;2023-04-24T02:12:24;11.80;1.00
8248;DHT22;4164;49.844;8.830;2023-04-24T02:14:49;11.80;1.00
8248;DHT22;4164;49.844;8.830;2023-04-24T02:17:15;11.70;1.00
8248;DHT22;4164;49.844;8.830;2023-04-24T02:19:41;11.70;1.00
8248;DHT22;4164;49.844;8.830;2023-04-24T02:22:07;11.70;1.00
8248;DHT22;4164;49.844;8.830;2023-04-24T02:24:32;11.70;1.00
8248;DHT22;4164;49.844;8.830;2023-04-24T02:26:58;11.70;1.00
8248;DHT22;4164;49.844;8.830;2023-04-24T02:29:23;11.80;1.00
8248;DHT22;4164;49.844;8.830;2023-04-24T02:31:49;11.80;1.00
8248;DHT22;4164;49.844;8.830;2023-04-24T02:34:15;11.80;1.00
8248;DHT22;4164;49.844;8.830;2023-04-24T02:36:41;11.80;1.00
8248;DHT22;4164;49.844;8.830;2023-04-24T02:39:07;11.80;1.00
8248;DHT22;4164;49.844;8.830;2023-04-24T02:41:32;11.70;1.00
8248;DHT22;4164;49.844;8.830;2023-04-24T02:43:58;11.80;1.00
8248;DHT22;4164;49.844;8.830;2023-04-24T02:46:24;11.70;1.00
8248;DHT22;4164;49.844;8.830;2023-04-24T02:48:50;11.60;1.00
8248;DHT22;4164;49.844;8.830;2023-04-24T02:51:15;11.50;99.90
8248;DHT22;4164;49.844;8.830;2023-04-24T02:53:41;11.40;99.90
8248;DHT22;4164;49.844;8.830;2023-04-24T02:56:06;11.40;1.00
8248;DHT22;4164;49.844;8.830;2023-04-24T02:58:32;11.20;1.00
8248;DHT22;4164;49.844;8.830;2023-04-24T03:00:57;11.10;1.00
8248;DHT22;4164;49.844;8.830;2023-04-24T03:03:23;11.10;1.00
8248;DHT22;4164;49.844;8.830;2023-04-24T03:05:49;11.10;99.90
8248;DHT22;4164;49.844;8.830;2023-04-24T03:08:15;11.10;1.00
8248;DHT22;4164;49.844;8.830;2023-04-24T03:10:41;11.10;1.00
8248;DHT22;4164;49.844;8.830;2023-04-24T03:13:06;11.10;1.00
8248;DHT22;4164;49.844;8.830;2023-04-24T03:15:32;11.00;99.90
8248;DHT22;4164;49.844;8.830;2023-04-24T03:17:57;11.00;1.00
8248;DHT22;4164;49.844;8.830;2023-04-24T03:20:23;11.00;1.00
8248;DHT22;4164;49.844;8.830;2023-04-24T03:22:49;10.90;1.00
8248;DHT22;4164;49.844;8.830;2023-04-24T03:25:14;10.90;1.00
8248;DHT22;4164;49.844;8.830;2023-04-24T03:27:40;10.80;1.00
8248;DHT22;4164;49.844;8.830;2023-04-24T03:30:07;10.80;99.90
8248;DHT22;4164;49.844;8.830;2023-04-24T03:32:33;10.80;99.90
8248;DHT22;4164;49.844;8.830;2023-04-24T03:34:58;10.80;99.90
8248;DHT22;4164;49.844;8.830;2023-04-24T03:37:24;10.60;1.00
8248;DHT22;4164;49.844;8.830;2023-04-24T03:39:49;10.40;99.90
8248;DHT22;4164;49.844;8.830;2023-04-24T03:42:15;10.40;99.90
8248;DHT22;4164;49.844;8.830;2023-04-24T03:44:41;10.30;99.90
8248;DHT22;4164;49.844;8.830;2023-04-24T03:47:06;10.30;99.90
8248;DHT22;4164;49.844;8.830;2023-04-24T03:49:32;10.20;1.00
8248;DHT22;4164;49.844;8.830;2023-04-24T03:51:57;10.20;1.00
8248;DHT22;4164;49.844;8.830;2023-04-24T03:54:23;10.10;1.00
8248;DHT22;4164;49.844;8.830;2023-04-24T03:56:48;10.10;1.00
8248;DHT22;4164;49.844;8.830;2023-04-24T03:59:14;10.00;1.00
8248;DHT22;4164;49.844;8.830;2023-04-24T04:01:40;10.10;1.00
8248;DHT22;4164;49.844;8.830;2023-04-24T04:04:06;10.10;1.00
8248;DHT22;4164;49.844;8.830;2023-04-24T04:06:32;10.00;1.00
8248;DHT22;4164;49.844;8.830;2023-04-24T04:08:58;10.00;1.00
8248;DHT22;4164;49.844;8.830;2023-04-24T04:11:23;10.00;1.00
8248;DHT22;4164;49.844;8.830;2023-04-24T04:13:49;10.00;1.00
8248;DHT22;4164;49.844;8.830;2023-04-24T04:16:15;10.00;1.00
8248;DHT22;4164;49.844;8.830;2023-04-24T04:18:44;10.00;1.00
8248;DHT22;4164;49.844;8.830;2023-04-24T04:21:10;10.00;1.00
8248;DHT22;4164;49.844;8.830;2023-04-24T04:23:36;9.90;1.00
8248;DHT22;4164;49.844;8.830;2023-04-24T04:26:02;9.80;99.90
8248;DHT22;4164;49.844;8.830;2023-04-24T04:28:28;9.80;99.90
8248;DHT22;4164;49.844;8.830;2023-04-24T04:30:56;9.70;99.90
8248;DHT22;4164;49.844;8.830;2023-04-24T04:33:23;9.60;99.90
8248;DHT22;4164;49.844;8.830;2023-04-24T04:35:49;9.60;1.00
8248;DHT22;4164;49.844;8.830;2023-04-24T04:38:15;9.50;1.00
8248;DHT22;4164;49.844;8.830;2023-04-24T04:40:42;9.50;1.00
8248;DHT22;4164;49.844;8.830;2023-04-24T04:43:08;9.50;99.90
8248;DHT22;4164;49.844;8.830;2023-04-24T04:45:33;9.40;99.90
8248;DHT22;4164;49.844;8.830;2023-04-24T04:48:00;9.40;12.90
8248;DHT22;4164;49.844;8.830;2023-04-24T04:50:27;9.40;95.00
8248;DHT22;4164;49.844;8.830;2023-04-24T04:52:53;9.30;1.00
8248;DHT22;4164;49.844;8.830;2023-04-24T04:55:18;9.40;8.50
8248;DHT22;4164;49.844;8.830;2023-04-24T04:57:45;9.30;99.90
8248;DHT22;4164;49.844;8.830;2023-04-24T05:00:11;9.30;99.90
8248;DHT22;4164;49.844;8.830;2023-04-24T05:02:38;9.30;1.00
8248;DHT22;4164;49.844;8.830;2023-04-24T05:05:04;9.20;1.00
8248;DHT22;4164;49.844;8.830;2023-04-24T05:07:31;9.20;1.00
8248;DHT22;4164;49.844;8.830;2023-04-24T05:09:56;9.30;3.50
8248;DHT22;4164;49.844;8.830;2023-04-24T05:12:22;9.30;82.20
8248;DHT22;4164;49.844;8.830;2023-04-24T05:14:47;9.30;99.90
8248;DHT22;4164;49.844;8.830;2023-04-24T05:17:13;9.40;1.00
8248;DHT22;4164;49.844;8.830;2023-04-24T05:19:38;9.50;1.00
8248;DHT22;4164;49.844;8.830;2023-04-24T05:22:04;9.50;1.00
8248;DHT22;4164;49.844;8.830;2023-04-24T05:24:35;9.60;1.00
8248;DHT22;4164;49.844;8.830;2023-04-24T05:27:00;9.60;1.00
8248;DHT22;4164;49.844;8.830;2023-04-24T05:29:27;9.70;99.90
8248;DHT22;4164;49.844;8.830;2023-04-24T05:31:53;9.80;99.90
8248;DHT22;4164;49.844;8.830;2023-04-24T05:34:18;9.80;99.90
8248;DHT22;4164;49.844;8.830;2023-04-24T05:36:44;9.90;99.90
8248;DHT22;4164;49.844;8.830;2023-04-24T05:39:10;9.90;1.00
8248;DHT22;4164;49.844;8.830;2023-04-24T05:41:35;9.90;1.00
8248;DHT22;4164;49.844;8.830;2023-04-24T05:44:01;10.20;1.00
8248;DHT22;4164;49.844;8.830;2023-04-24T05:46:26;9.90;99.90
8248;DHT22;4164;49.844;8.830;2023-04-24T05:48:52;9.90;99.90
8248;DHT22;4164;49.844;8.830;2023-04-24T05:51:17;9.90;1.00
8248;DHT22;4164;49.844;8.830;2023-04-24T05:53:43;10.00;99.90
8248;DHT22;4164;49.844;8.830;2023-04-24T05:56:08;10.10;99.90
8248;DHT22;4164;49.844;8.830;2023-04-24T05:58:34;10.20;99.90
8248;DHT22;4164;49.844;8.830;2023-04-24T06:01:00;10.20;99.90
8248;DHT22;4164;49.844;8.830;2023-04-24T06:03:26;10.30;1.00
8248;DHT22;4164;49.844;8.830;2023-04-24T06:05:53;10.40;1.00
8248;DHT22;4164;49.844;8.830;2023-04-24T06:08:18;10.50;1.00
8248;DHT22;4164;49.844;8.830;2023-04-24T06:10:44;10.40;99.90
8248;DHT22;4164;49.844;8.830;2023-04-24T06:13:09;10.50;99.90
8248;DHT22;4164;49.844;8.830;2023-04-24T06:15:35;10.60;99.90
8248;DHT22;4164;49.844;8.830;2023-04-24T06:18:01;10.60;11.70
8248;DHT22;4164;49.844;8.830;2023-04-24T06:20:26;10.50;99.90
8248;DHT22;4164;49.844;8.830;2023-04-24T06:22:52;10.40;1.00
8248;DHT22;4164;49.844;8.830;2023-04-24T06:25:18;10.60;1.00
8248;DHT22;4164;49.844;8.830;2023-04-24T06:27:44;10.40;1.00
8248;DHT22;4164;49.844;8.830;2023-04-24T06:30:10;10.30;1.00
8248;DHT22;4164;49.844;8.830;2023-04-24T06:32:36;10.30;1.00
8248;DHT22;4164;49.844;8.830;2023-04-24T06:35:01;10.20;1.00
8248;DHT22;4164;49.844;8.830;2023-04-24T06:37:27;10.20;1.00
8248;DHT22;4164;49.844;8.830;2023-04-24T06:39:53;10.10;1.00
8248;DHT22;4164;49.844;8.830;2023-04-24T06:42:18;10.10;1.00
8248;DHT22;4164;49.844;8.830;2023-04-24T06:44:46;10.20;1.00
8248;DHT22;4164;49.844;8.830;2023-04-24T06:47:11;10.20;1.00
8248;DHT22;4164;49.844;8.830;2023-04-24T06:49:39;10.30;1.00
8248;DHT22;4164;49.844;8.830;2023-04-24T06:52:05;10.40;1.00
8248;DHT22;4164;49.844;8.830;2023-04-24T06:54:31;10.40;1.00
8248;DHT22;4164;49.844;8.830;2023-04-24T06:56:57;10.40;1.00
8248;DHT22;4164;49.844;8.830;2023-04-24T06:59:24;10.40;1.00
8248;DHT22;4164;49.844;8.830;2023-04-24T07:01:50;10.50;1.00
8248;DHT22;4164;49.844;8.830;2023-04-24T07:04:16;10.60;1.00
8248;DHT22;4164;49.844;8.830;2023-04-24T07:06:42;10.50;1.00
8248;DHT22;4164;49.844;8.830;2023-04-24T07:09:08;10.70;1.00
8248;DHT22;4164;49.844;8.830;2023-04-24T07:11:35;10.70;1.00
8248;DHT22;4164;49.844;8.830;2023-04-24T07:14:00;10.80;1.00
8248;DHT22;4164;49.844;8.830;2023-04-24T07:16:26;10.80;99.90
8248;DHT22;4164;49.844;8.830;2023-04-24T07:18:52;10.60;99.90
8248;DHT22;4164;49.844;8.830;2023-04-24T07:21:18;10.90;99.90
8248;DHT22;4164;49.844;8.830;2023-04-24T07:23:43;10.90;99.90
8248;DHT22;4164;49.844;8.830;2023-04-24T07:26:09;11.00;99.90
8248;DHT22;4164;49.844;8.830;2023-04-24T07:28:34;11.00;99.90
8248;DHT22;4164;49.844;8.830;2023-04-24T07:31:00;11.00;99.90
8248;DHT22;4164;49.844;8.830;2023-04-24T07:33:26;11.00;99.90
8248;DHT22;4164;49.844;8.830;2023-04-24T07:35:52;11.00;99.90
8248;DHT22;4164;49.844;8.830;2023-04-24T07:38:18;11.30;99.90
8248;DHT22;4164;49.844;8.830;2023-04-24T07:40:46;11.70;99.90
8248;DHT22;4164;49.844;8.830;2023-04-24T07:43:12;11.70;99.20
8248;DHT22;4164;49.844;8.830;2023-04-24T07:45:38;11.60;22.60
8248;DHT22;4164;49.844;8.830;2023-04-24T07:48:04;11.80;68.30
8248;DHT22;4164;49.844;8.830;2023-04-24T07:50:33;11.90;27.80
8248;DHT22;4164;49.844;8.830;2023-04-24T07:53:00;11.70;22.80
8248;DHT22;4164;49.844;8.830;2023-04-24T07:55:25;11.50;6.90
8248;DHT22;4164;49.844;8.830;2023-04-24T07:57:51;11.50;8.20
8248;DHT22;4164;49.844;8.830;2023-04-24T08:00:17;11.60;39.40
8248;DHT22;4164;49.844;8.830;2023-04-24T08:02:42;11.90;70.90
8248;DHT22;4164;49.844;8.830;2023-04-24T08:05:08;11.80;22.40
8248;DHT22;4164;49.844;8.830;2023-04-24T08:07:34;11.90;48.80
8248;DHT22;4164;49.844;8.830;2023-04-24T08:10:00;12.20;73.50
8248;DHT22;4164;49.844;8.830;2023-04-24T08:12:28;12.20;18.50
8248;DHT22;4164;49.844;8.830;2023-04-24T08:14:54;12.20;16.50
8248;DHT22;4164;49.844;8.830;2023-04-24T08:17:19;11.90;1.00
8248;DHT22;4164;49.844;8.830;2023-04-24T08:19:45;11.70;1.10
8248;DHT22;4164;49.844;8.830;2023-04-24T08:22:16;11.30;1.00
8248;DHT22;4164;49.844;8.830;2023-04-24T08:24:42;11.50;1.00
8248;DHT22;4164;49.844;8.830;2023-04-24T08:27:08;11.40;1.00
8248;DHT22;4164;49.844;8.830;2023-04-24T08:29:34;11.40;1.00
8248;DHT22;4164;49.844;8.830;2023-04-24T08:31:59;11.50;1.00
8248;DHT22;4164;49.844;8.830;2023-04-24T08:34:25;11.60;1.00
8248;DHT22;4164;49.844;8.830;2023-04-24T08:36:50;11.80;1.00
8248;DHT22;4164;49.844;8.830;2023-04-24T08:39:17;12.10;1.00
8248;DHT22;4164;49.844;8.830;2023-04-24T08:41:43;12.20;1.00
8248;DHT22;4164;49.844;8.830;2023-04-24T08:44:11;11.80;1.00
8248;DHT22;4164;49.844;8.830;2023-04-24T08:46:39;11.70;1.00
8248;DHT22;4164;49.844;8.830;2023-04-24T08:49:06;11.60;1.00
8248;DHT22;4164;49.844;8.830;2023-04-24T08:51:31;11.60;1.00
8248;DHT22;4164;49.844;8.830;2023-04-24T08:53:57;11.50;1.00
8248;DHT22;4164;49.844;8.830;2023-04-24T08:56:26;11.90;1.00
8248;DHT22;4164;49.844;8.830;2023-04-24T08:58:54;12.30;1.00
8248;DHT22;4164;49.844;8.830;2023-04-24T09:01:20;12.30;1.00
8248;DHT22;4164;49.844;8.830;2023-04-24T09:03:48;12.50;1.00
8248;DHT22;4164;49.844;8.830;2023-04-24T09:06:16;12.40;1.00
8248;DHT22;4164;49.844;8.830;2023-04-24T09:08:43;12.10;1.00
8248;DHT22;4164;49.844;8.830;2023-04-24T09:11:11;11.90;1.00
8248;DHT22;4164;49.844;8.830;2023-04-24T09:13:37;11.90;1.00
8248;DHT22;4164;49.844;8.830;2023-04-24T09:16:03;11.90;1.00
8248;DHT22;4164;49.844;8.830;2023-04-24T09:18:28;11.90;1.00
8248;DHT22;4164;49.844;8.830;2023-04-24T09:21:06;12.40;1.00
8248;DHT22;4164;49.844;8.830;2023-04-24T09:23:32;12.30;99.90
8248;DHT22;4164;49.844;8.830;2023-04-24T09:25:59;12.40;1.00
8248;DHT22;4164;49.844;8.830;2023-04-24T09:28:29;12.20;1.00
8248;DHT22;4164;49.844;8.830;2023-04-24T09:33:28;12.30;1.00
8248;DHT22;4164;49.844;8.830;2023-04-24T09:35:53;12.20;99.90
8248;DHT22;4164;49.844;8.830;2023-04-24T09:38:30;12.60;99.90
8248;DHT22;4164;49.844;8.830;2023-04-24T09:40:59;12.70;99.90
8248;DHT22;4164;49.844;8.830;2023-04-24T09:43:26;13.20;99.90
8248;DHT22;4164;49.844;8.830;2023-04-24T09:45:56;13.40;99.90
8248;DHT22;4164;49.844;8.830;2023-04-24T09:48:30;13.30;99.90
8248;DHT22;4164;49.844;8.830;2023-04-24T09:50:56;13.20;99.90
8248;DHT22;4164;49.844;8.830;2023-04-24T09:53:24;12.50;99.90
8248;DHT22;4164;49.844;8.830;2023-04-24T09:55:51;12.40;99.90
8248;DHT22;4164;49.844;8.830;2023-04-24T09:58:24;12.00;99.90
8248;DHT22;4164;49.844;8.830;2023-04-24T10:00:53;12.00;99.90
8248;DHT22;4164;49.844;8.830;2023-04-24T10:03:19;12.10;99.90
8248;DHT22;4164;49.844;8.830;2023-04-24T10:05:46;12.00;99.90
8248;DHT22;4164;49.844;8.830;2023-04-24T10:08:12;11.90;99.90
8248;DHT22;4164;49.844;8.830;2023-04-24T10:10:43;11.70;99.90
8248;DHT22;4164;49.844;8.830;2023-04-24T10:13:10;11.80;99.90
8248;DHT22;4164;49.844;8.830;2023-04-24T10:15:37;12.00;99.90
8248;DHT22;4164;49.844;8.830;2023-04-24T10:18:04;12.30;99.90
8248;DHT22;4164;49.844;8.830;2023-04-24T10:20:30;12.10;99.90
8248;DHT22;4164;49.844;8.830;2023-04-24T10:22:57;11.90;99.90
8248;DHT22;4164;49.844;8.830;2023-04-24T10:25:25;11.90;99.90
8248;DHT22;4164;49.844;8.830;2023-04-24T10:27:52;11.90;99.90
8248;DHT22;4164;49.844;8.830;2023-04-24T10:30:19;11.90;99.90
8248;DHT22;4164;49.844;8.830;2023-04-24T10:32:48;11.80;99.90
8248;DHT22;4164;49.844;8.830;2023-04-24T10:35:15;11.80;99.90
8248;DHT22;4164;49.844;8.830;2023-04-24T10:40:27;11.80;99.90
8248;DHT22;4164;49.844;8.830;2023-04-24T10:42:53;11.80;99.90
8248;DHT22;4164;49.844;8.830;2023-04-24T10:45:20;11.80;99.90
8248;DHT22;4164;49.844;8.830;2023-04-24T10:50:22;11.70;99.90
8248;DHT22;4164;49.844;8.830;2023-04-24T10:52:49;11.50;99.90
8248;DHT22;4164;49.844;8.830;2023-04-24T10:55:48;11.50;99.90
8248;DHT22;4164;49.844;8.830;2023-04-24T10:58:14;11.90;99.90
8248;DHT22;4164;49.844;8.830;2023-04-24T11:00:42;12.00;99.90
8248;DHT22;4164;49.844;8.830;2023-04-24T11:03:24;12.50;99.90
8248;DHT22;4164;49.844;8.830;2023-04-24T11:11:03;13.30;99.90
8248;DHT22;4164;49.844;8.830;2023-04-24T11:16:25;13.60;99.90
8248;DHT22;4164;49.844;8.830;2023-04-24T11:18:52;13.70;99.90
8248;DHT22;4164;49.844;8.830;2023-04-24T11:21:25;13.30;99.90
8248;DHT22;4164;49.844;8.830;2023-04-24T11:23:51;12.80;99.90
8248;DHT22;4164;49.844;8.830;2023-04-24T11:26:22;13.00;99.90
8248;DHT22;4164;49.844;8.830;2023-04-24T11:28:50;12.40;99.90
8248;DHT22;4164;49.844;8.830;2023-04-24T11:31:39;11.90;99.90
8248;DHT22;4164;49.844;8.830;2023-04-24T11:34:09;11.90;99.90
8248;DHT22;4164;49.844;8.830;2023-04-24T11:36:35;12.00;99.90
8248;DHT22;4164;49.844;8.830;2023-04-24T11:39:01;11.80;99.90
8248;DHT22;4164;49.844;8.830;2023-04-24T11:41:28;11.60;99.90
8248;DHT22;4164;49.844;8.830;2023-04-24T11:43:54;11.60;99.90
8248;DHT22;4164;49.844;8.830;2023-04-24T11:46:29;11.50;99.90
8248;DHT22;4164;49.844;8.830;2023-04-24T11:48:56;11.50;99.90
8248;DHT22;4164;49.844;8.830;2023-04-24T11:51:26;11.50;99.90
8248;DHT22;4164;49.844;8.830;2023-04-24T11:53:53;11.30;1.00
8248;DHT22;4164;49.844;8.830;2023-04-24T11:56:21;11.30;1.00
8248;DHT22;4164;49.844;8.830;2023-04-24T11:58:46;11.40;1.00
8248;DHT22;4164;49.844;8.830;2023-04-24T12:01:12;11.40;1.00
8248;DHT22;4164;49.844;8.830;2023-04-24T12:03:38;11.30;99.90
8248;DHT22;4164;49.844;8.830;2023-04-24T12:06:11;11.20;99.90
8248;DHT22;4164;49.844;8.830;2023-04-24T12:08:37;11.20;99.90
8248;DHT22;4164;49.844;8.830;2023-04-24T12:11:04;11.20;99.90
8248;DHT22;4164;49.844;8.830;2023-04-24T12:13:31;11.20;1.00
8248;DHT22;4164;49.844;8.830;2023-04-24T12:15:57;10.90;1.00
8248;DHT22;4164;49.844;8.830;2023-04-24T12:18:23;10.50;99.90
8248;DHT22;4164;49.844;8.830;2023-04-24T12:20:49;10.10;1.00
8248;DHT22;4164;49.844;8.830;2023-04-24T12:23:15;10.10;99.90
8248;DHT22;4164;49.844;8.830;2023-04-24T12:25:41;10.10;99.90
8248;DHT22;4164;49.844;8.830;2023-04-24T12:30:41;9.90;99.90
8248;DHT22;4164;49.844;8.830;2023-04-24T12:33:06;9.90;1.00
8248;DHT22;4164;49.844;8.830;2023-04-24T12:35:33;9.90;99.90
8248;DHT22;4164;49.844;8.830;2023-04-24T12:38:16;10.10;99.90
8248;DHT22;4164;49.844;8.830;2023-04-24T12:40:43;10.20;1.00
8248;DHT22;4164;49.844;8.830;2023-04-24T12:43:19;11.50;99.90
8248;DHT22;4164;49.844;8.830;2023-04-24T12:45:48;13.60;39.40
8248;DHT22;4164;49.844;8.830;2023-04-24T12:48:14;13.70;1.00
8248;DHT22;4164;49.844;8.830;2023-04-24T12:50:40;12.20;1.00
8248;DHT22;4164;49.844;8.830;2023-04-24T12:53:07;12.90;1.00
8248;DHT22;4164;49.844;8.830;2023-04-24T12:55:33;14.90;1.00
8248;DHT22;4164;49.844;8.830;2023-04-24T12:57:58;16.90;1.00
8248;DHT22;4164;49.844;8.830;2023-04-24T13:00:24;15.50;99.90
8248;DHT22;4164;49.844;8.830;2023-04-24T13:02:49;14.70;99.90
8248;DHT22;4164;49.844;8.830;2023-04-24T13:05:15;13.90;99.90
8248;DHT22;4164;49.844;8.830;2023-04-24T13:07:41;14.30;99.90
8248;DHT22;4164;49.844;8.830;2023-04-24T13:10:07;15.10;99.90
8248;DHT22;4164;49.844;8.830;2023-04-24T13:12:33;15.20;99.90
8248;DHT22;4164;49.844;8.830;2023-04-24T13:14:58;15.60;99.90
8248;DHT22;4164;49.844;8.830;2023-04-24T13:17:24;16.70;99.90
8248;DHT22;4164;49.844;8.830;2023-04-24T13:19:51;16.80;99.90
8248;DHT22;4164;49.844;8.830;2023-04-24T13:22:17;16.70;99.90
8248;DHT22;4164;49.844;8.830;2023-04-24T13:24:44;17.50;99.90
8248;DHT22;4164;49.844;8.830;2023-04-24T13:27:10;17.70;99.90
8248;DHT22;4164;49.844;8.830;2023-04-24T13:29:36;16.00;99.90
8248;DHT22;4164;49.844;8.830;2023-04-24T13:32:02;14.00;99.90
8248;DHT22;4164;49.844;8.830;2023-04-24T13:34:28;13.70;99.90
8248;DHT22;4164;49.844;8.830;2023-04-24T13:36:55;14.10;99.90
8248;DHT22;4164;49.844;8.830;2023-04-24T13:39:22;14.20;99.90
8248;DHT22;4164;49.844;8.830;2023-04-24T13:41:48;13.80;99.90
8248;DHT22;4164;49.844;8.830;2023-04-24T13:44:15;13.60;99.90
8248;DHT22;4164;49.844;8.830;2023-04-24T13:46:41;13.40;99.90
8248;DHT22;4164;49.844;8.830;2023-04-24T13:49:06;13.20;99.90
8248;DHT22;4164;49.844;8.830;2023-04-24T13:51:32;13.30;99.90
8248;DHT22;4164;49.844;8.830;2023-04-24T13:53:58;13.20;99.90
8248;DHT22;4164;49.844;8.830;2023-04-24T13:56:24;13.30;99.90
8248;DHT22;4164;49.844;8.830;2023-04-24T13:58:51;12.90;99.90
8248;DHT22;4164;49.844;8.830;2023-04-24T14:01:16;12.80;99.90
8248;DHT22;4164;49.844;8.830;2023-04-24T14:03:42;12.60;99.90
8248;DHT22;4164;49.844;8.830;2023-04-24T14:06:11;12.60;99.90
8248;DHT22;4164;49.844;8.830;2023-04-24T14:08:36;12.60;99.90
8248;DHT22;4164;49.844;8.830;2023-04-24T14:11:02;12.50;99.90
8248;DHT22;4164;49.844;8.830;2023-04-24T14:13:28;12.40;99.90
8248;DHT22;4164;49.844;8.830;2023-04-24T14:15:54;12.40;99.90
8248;DHT22;4164;49.844;8.830;2023-04-24T14:18:19;12.30;99.90
8248;DHT22;4164;49.844;8.830;2023-04-24T14:20:45;12.10;99.90
8248;DHT22;4164;49.844;8.830;2023-04-24T14:23:11;12.00;99.90
8248;DHT22;4164;49.844;8.830;2023-04-24T14:25:36;12.10;99.90
8248;DHT22;4164;49.844;8.830;2023-04-24T14:28:02;12.10;99.90
8248;DHT22;4164;49.844;8.830;2023-04-24T14:30:28;12.30;99.90
8248;DHT22;4164;49.844;8.830;2023-04-24T14:32:53;12.40;99.90
8248;DHT22;4164;49.844;8.830;2023-04-24T14:35:19;12.40;99.90
8248;DHT22;4164;49.844;8.830;2023-04-24T14:37:48;12.40;99.90
8248;DHT22;4164;49.844;8.830;2023-04-24T14:40:14;12.40;99.90
8248;DHT22;4164;49.844;8.830;2023-04-24T14:42:40;12.60;99.90
8248;DHT22;4164;49.844;8.830;2023-04-24T14:45:06;12.40;99.90
8248;DHT22;4164;49.844;8.830;2023-04-24T14:47:32;12.40;99.90
8248;DHT22;4164;49.844;8.830;2023-04-24T14:49:58;12.50;99.90
8248;DHT22;4164;49.844;8.830;2023-04-24T14:52:23;12.50;99.90
8248;DHT22;4164;49.844;8.830;2023-04-24T14:54:49;12.60;99.90
8248;DHT22;4164;49.844;8.830;2023-04-24T14:57:15;12.40;99.90
8248;DHT22;4164;49.844;8.830;2023-04-24T14:59:40;12.40;99.90
8248;DHT22;4164;49.844;8.830;2023-04-24T15:02:06;12.60;99.90
8248;DHT22;4164;49.844;8.830;2023-04-24T15:04:32;12.90;99.90
8248;DHT22;4164;49.844;8.830;2023-04-24T15:06:57;12.80;99.90
8248;DHT22;4164;49.844;8.830;2023-04-24T15:09:23;12.60;99.90
8248;DHT22;4164;49.844;8.830;2023-04-24T15:11:50;12.70;99.90
8248;DHT22;4164;49.844;8.830;2023-04-24T15:14:17;12.80;99.90
8248;DHT22;4164;49.844;8.830;2023-04-24T15:16:43;12.60;99.90
8248;DHT22;4164;49.844;8.830;2023-04-24T15:19:09;12.60;99.90
8248;DHT22;4164;49.844;8.830;2023-04-24T15:21:36;12.40;99.90
8248;DHT22;4164;49.844;8.830;2023-04-24T15:24:02;12.40;99.90
8248;DHT22;4164;49.844;8.830;2023-04-24T15:26:27;12.40;99.90
8248;DHT22;4164;49.844;8.830;2023-04-24T15:28:53;12.30;99.90
8248;DHT22;4164;49.844;8.830;2023-04-24T15:31:19;12.20;99.90
8248;DHT22;4164;49.844;8.830;2023-04-24T15:33:45;12.20;99.90
8248;DHT22;4164;49.844;8.830;2023-04-24T15:36:10;12.40;99.90
8248;DHT22;4164;49.844;8.830;2023-04-24T15:38:37;12.50;99.90
8248;DHT22;4164;49.844;8.830;2023-04-24T15:41:02;12.40;99.90
8248;DHT22;4164;49.844;8.830;2023-04-24T15:43:28;12.40;99.90
8248;DHT22;4164;49.844;8.830;2023-04-24T15:45:59;12.50;99.90
8248;DHT22;4164;49.844;8.830;2023-04-24T15:48:25;12.70;99.90
8248;DHT22;4164;49.844;8.830;2023-04-24T15:50:50;12.70;99.90
8248;DHT22;4164;49.844;8.830;2023-04-24T15:53:16;12.80;99.90
8248;DHT22;4164;49.844;8.830;2023-04-24T15:55:51;12.70;99.90
8248;DHT22;4164;49.844;8.830;2023-04-24T15:58:17;12.80;99.90
8248;DHT22;4164;49.844;8.830;2023-04-24T16:00:43;12.80;99.90
8248;DHT22;4164;49.844;8.830;2023-04-24T16:03:09;12.70;99.90
8248;DHT22;4164;49.844;8.830;2023-04-24T16:05:35;12.80;99.90
8248;DHT22;4164;49.844;8.830;2023-04-24T16:08:00;12.90;99.90
8248;DHT22;4164;49.844;8.830;2023-04-24T16:10:26;12.90;99.90
8248;DHT22;4164;49.844;8.830;2023-04-24T16:12:52;12.80;99.90
8248;DHT22;4164;49.844;8.830;2023-04-24T16:15:19;13.10;99.90
8248;DHT22;4164;49.844;8.830;2023-04-24T16:17:46;13.10;99.90
8248;DHT22;4164;49.844;8.830;2023-04-24T16:20:12;13.20;99.90
8248;DHT22;4164;49.844;8.830;2023-04-24T16:22:38;13.30;99.90